Time;durP1;ratioP1;P1;durP2;ratioP2;P2;SDS_P1;SDS_P2;PMS_P1;PMS_P2;Temp;Humidity;BMP_temperature;BMP_pressure;BME280_temperature;BME280_humidity;BME280_pressure;Samples;Min_cycle;Max_cycle;Signal;HPM_P1;HPM_P2
2021/12/21 00:02:26;;;;;;;15.00;7.00;;;;;;;0.51;88.39;101111.58;2868265;81;21625;-73
2021/12/21 00:06:27;;;;;;;11.35;5.80;;;;;;;0.49;88.12;101116.00;2873998;80;21406;-70
2021/12/21 00:10:33;;;;;;;9.05;6.70;;;;;;;0.41;88.00;101113.58;2863283;82;21572;-72
2021/12/21 00:14:50;;;;;;;10.27;5.60;;;;;;;0.49;88.00;101114.25;2893033;81;21022;-72
2021/12/21 00:19:05;;;;;;;12.80;6.80;;;;;;;0.46;87.84;101113.47;2881139;81;21062;-73
2021/12/21 00:26:54;;;;;;;14.13;6.92;;;;;;;0.38;87.75;101123.67;2827559;83;21074;-69
2021/12/21 00:30:56;;;;;;;17.70;9.13;;;;;;;0.37;88.03;101124.57;2868295;82;21030;-71
2021/12/21 00:34:57;;;;;;;10.38;7.55;;;;;;;0.47;88.24;101125.66;2851236;83;21054;-72
2021/12/21 00:39:05;;;;;;;8.08;5.00;;;;;;;0.53;87.69;101130.72;2850890;83;21019;-71
2021/12/21 00:43:06;;;;;;;8.73;5.83;;;;;;;0.55;87.53;101131.53;2856783;82;21168;-71
2021/12/21 00:47:08;;;;;;;9.90;4.85;;;;;;;0.61;87.42;101137.94;2904973;82;21708;-71
2021/12/21 00:51:09;;;;;;;7.05;4.92;;;;;;;0.65;87.32;101143.50;2905795;82;21423;-71
2021/12/21 00:55:11;;;;;;;13.35;6.80;;;;;;;0.71;86.46;101147.25;2905252;81;21003;-72
2021/12/21 00:59:14;;;;;;;4.60;3.37;;;;;;;0.72;86.50;101141.58;2880367;82;21020;-71
2021/12/21 01:03:17;;;;;;;10.03;5.10;;;;;;;0.80;86.10;101146.62;2851158;83;21522;-72
2021/12/21 01:07:26;;;;;;;10.00;5.45;;;;;;;0.82;85.99;101140.88;2853469;82;21055;-71
2021/12/21 01:11:31;;;;;;;7.30;5.00;;;;;;;0.90;85.81;101150.69;2879904;82;21012;-71
2021/12/21 01:19:42;;;;;;;14.73;7.42;;;;;;;0.94;85.23;101141.83;2880403;82;21049;-72
2021/12/21 01:28:05;;;;;;;13.28;5.72;;;;;;;1.07;84.85;101142.80;2854263;82;21062;-71
2021/12/21 01:32:15;;;;;;;9.13;5.22;;;;;;;1.06;84.93;101142.40;2898710;82;21049;-72
2021/12/21 01:36:20;;;;;;;10.25;5.65;;;;;;;1.14;84.78;101139.09;2885774;82;21065;-72
2021/12/21 01:40:30;;;;;;;11.25;5.58;;;;;;;1.14;84.49;101136.48;2903645;82;21054;-71
2021/12/21 01:49:33;;;;;;;9.17;3.80;;;;;;;1.16;84.18;101135.98;2880515;81;21057;-71
2021/12/21 01:52:52;;;;;;;7.50;4.77;;;;;;;1.21;83.98;101125.37;2911576;81;20932;-71
2021/12/21 01:56:54;;;;;;;6.17;4.22;;;;;;;1.19;84.03;101120.63;2911293;81;20963;-72
2021/12/21 02:00:56;;;;;;;5.42;4.12;;;;;;;1.21;83.61;101114.88;2911485;81;21045;-71
2021/12/21 02:05:00;;;;;;;6.00;4.25;;;;;;;1.22;83.82;101117.91;2909459;81;21042;-66
2021/12/21 02:09:02;;;;;;;7.72;3.37;;;;;;;1.38;83.98;101121.80;2879380;81;21041;-72
2021/12/21 02:13:04;;;;;;;6.40;3.87;;;;;;;1.42;83.51;101119.48;2831361;84;21099;-72
2021/12/21 02:21:33;;;;;;;5.60;3.58;;;;;;;1.52;83.34;101118.75;2869926;82;21071;-69
2021/12/21 02:29:35;;;;;;;12.58;4.62;;;;;;;1.54;82.97;101118.25;2873569;81;21029;-72
2021/12/21 02:33:37;;;;;;;10.57;4.10;;;;;;;1.63;82.86;101111.02;2832311;84;21046;-70
2021/12/21 02:37:39;;;;;;;4.37;3.17;;;;;;;1.62;82.46;101100.97;2832087;84;21090;-72
2021/12/21 02:41:43;;;;;;;8.63;5.30;;;;;;;1.69;82.60;101102.95;2832219;84;21026;-71
2021/12/21 02:45:45;;;;;;;6.53;4.58;;;;;;;1.65;81.91;101098.23;2833749;84;21111;-72
2021/12/21 02:49:47;;;;;;;8.48;4.33;;;;;;;1.64;82.11;101097.00;2857706;83;21069;-71
2021/12/21 02:53:49;;;;;;;6.97;3.87;;;;;;;1.65;82.01;101086.91;2844019;82;20976;-72
2021/12/21 02:57:52;;;;;;;4.87;3.25;;;;;;;1.67;81.68;101084.66;2848658;82;21067;-72
2021/12/21 03:01:54;;;;;;;9.95;4.67;;;;;;;1.60;81.66;101073.93;2849693;82;21035;-71
2021/12/21 03:05:57;;;;;;;8.03;4.42;;;;;;;1.45;81.38;101076.59;2862107;82;21649;-71
2021/12/21 03:10:03;;;;;;;7.37;4.45;;;;;;;1.42;81.34;101068.83;2835520;84;21047;-72
2021/12/21 03:14:08;;;;;;;5.05;2.80;;;;;;;1.43;81.44;101071.84;2835441;84;21043;-69
2021/12/21 03:18:11;;;;;;;8.60;4.40;;;;;;;1.51;82.15;101063.28;2853452;83;21121;-72
2021/12/21 03:22:15;;;;;;;8.33;3.35;;;;;;;1.60;82.29;101071.78;2853065;82;21118;-71
2021/12/21 03:26:18;;;;;;;5.42;3.37;;;;;;;1.62;82.01;101064.72;2853429;83;21055;-71
2021/12/21 03:30:20;;;;;;;5.28;3.80;;;;;;;1.56;82.02;101066.60;2853295;83;21035;-70
2021/12/21 03:34:21;;;;;;;4.40;3.90;;;;;;;1.64;81.98;101063.73;2853487;83;21007;-72
2021/12/21 03:38:25;;;;;;;5.75;3.50;;;;;;;1.55;81.98;101064.89;2853153;83;21050;-71
2021/12/21 03:42:26;;;;;;;5.70;3.75;;;;;;;1.58;82.31;101063.95;2852842;82;21097;-71
2021/12/21 03:46:31;;;;;;;9.38;4.40;;;;;;;1.72;82.63;101062.19;2853199;83;21043;-70
2021/12/21 03:50:33;;;;;;;4.42;3.15;;;;;;;1.85;82.02;101059.57;2853150;83;21026;-71
2021/12/21 03:54:36;;;;;;;5.45;3.27;;;;;;;1.95;81.09;101056.63;2853340;83;21019;-71
2021/12/21 03:58:40;;;;;;;4.90;3.00;;;;;;;2.01;81.11;101060.38;2853845;83;21011;-71
2021/12/21 04:02:44;;;;;;;4.33;3.42;;;;;;;2.05;80.86;101055.42;2853721;83;21055;-72
2021/12/21 04:06:48;;;;;;;8.78;4.70;;;;;;;1.91;79.74;101056.34;2852802;83;21141;-72
2021/12/21 04:10:50;;;;;;;9.05;3.72;;;;;;;1.83;79.76;101050.90;2853104;83;21082;-73
2021/12/21 04:14:53;;;;;;;6.50;3.95;;;;;;;1.65;79.67;101058.05;2852762;83;21586;-73
2021/12/21 04:18:55;;;;;;;4.58;2.80;;;;;;;1.61;80.34;101061.69;2853280;83;21031;-78
2021/12/21 04:22:58;;;;;;;5.65;3.33;;;;;;;1.48;81.08;101071.24;2867380;82;21110;-78
2021/12/21 04:26:59;;;;;;;4.42;2.83;;;;;;;1.42;81.59;101064.89;2878533;82;21062;-73
2021/12/21 04:31:02;;;;;;;5.85;3.00;;;;;;;1.46;81.92;101073.06;2883289;81;21061;-78
2021/12/21 04:35:04;;;;;;;5.53;3.30;;;;;;;1.43;81.86;101069.23;2827342;84;21047;-76
2021/12/21 04:39:17;;;;;;;8.05;2.72;;;;;;;1.46;81.82;101069.12;2858204;83;21089;-77
2021/12/21 04:43:11;;;;;;;7.78;4.10;;;;;;;1.51;82.03;101069.83;2862348;83;21010;-78
2021/12/21 04:47:13;;;;;;;4.87;2.50;;;;;;;1.51;81.56;101073.77;2855342;83;21109;-78
2021/12/21 04:51:14;;;;;;;5.25;2.72;;;;;;;1.58;80.77;101074.91;2853670;83;21562;-77
2021/12/21 04:55:16;;;;;;;6.87;3.33;;;;;;;1.66;80.96;101070.26;2853127;83;21049;-78
2021/12/21 04:59:20;;;;;;;4.92;3.37;;;;;;;1.73;81.24;101073.08;2853668;83;21073;-77
2021/12/21 05:03:26;;;;;;;2.75;2.50;;;;;;;1.75;81.15;101068.64;2891947;82;21097;-76
2021/12/21 05:07:32;;;;;;;2.83;1.82;;;;;;;1.83;81.10;101065.33;2869919;81;21089;-74
2021/12/21 05:11:36;;;;;;;5.67;3.05;;;;;;;1.87;81.16;101068.72;2856033;83;21008;-73
2021/12/21 05:15:38;;;;;;;5.45;3.77;;;;;;;1.92;81.38;101067.23;2857039;83;21768;-73
2021/12/21 05:19:40;;;;;;;4.35;2.83;;;;;;;1.92;81.21;101067.23;2857225;83;21038;-73
2021/12/21 05:23:41;;;;;;;4.25;3.62;;;;;;;1.89;81.33;101072.59;2858070;83;21081;-73
2021/12/21 05:27:44;;;;;;;4.42;3.08;;;;;;;1.94;81.57;101068.03;2858392;83;20999;-74
2021/12/21 05:31:45;;;;;;;4.78;2.12;;;;;;;1.98;81.47;101071.83;2857648;83;21065;-73
2021/12/21 05:35:48;;;;;;;4.28;2.22;;;;;;;1.96;81.60;101081.52;2874544;82;20994;-73
2021/12/21 05:40:10;;;;;;;4.37;3.33;;;;;;;1.93;81.30;101074.20;2907565;81;21086;-74
2021/12/21 05:44:02;;;;;;;5.45;3.37;;;;;;;1.99;81.32;101088.45;2904659;82;21018;-74
2021/12/21 05:48:04;;;;;;;8.55;4.90;;;;;;;1.99;82.09;101096.32;2920074;81;21026;-74
2021/12/21 05:52:06;;;;;;;6.58;4.83;;;;;;;2.03;80.14;101105.80;2921839;81;21065;-74
2021/12/21 05:56:09;;;;;;;5.53;3.60;;;;;;;2.12;79.58;101096.29;2861258;83;21526;-74
2021/12/21 06:00:16;;;;;;;6.22;3.60;;;;;;;2.19;79.50;101097.42;2861542;82;21090;-74
2021/12/21 06:04:18;;;;;;;4.78;2.98;;;;;;;2.08;78.53;101107.81;2861737;83;21586;-74
2021/12/21 06:08:22;;;;;;;6.85;3.22;;;;;;;2.11;77.95;101102.45;2861773;83;20999;-74
2021/12/21 06:12:43;;;;;;;7.15;3.30;;;;;;;2.18;78.25;101103.58;2861320;83;21034;-74
2021/12/21 06:29:12;;;;;;;5.78;4.67;;;;;;;2.26;78.86;101119.92;2853132;82;20138;-74
2021/12/21 06:33:17;;;;;;;4.85;4.33;;;;;;;2.25;78.88;101118.20;2920790;81;21033;-73
2021/12/21 06:37:22;;;;;;;6.72;3.60;;;;;;;2.26;79.08;101115.98;2920702;81;20950;-74
2021/12/21 06:41:25;;;;;;;5.08;3.75;;;;;;;2.31;79.07;101116.67;2921124;81;20998;-71
2021/12/21 06:54:01;;;;;;;9.40;5.05;;;;;;;2.37;79.47;101134.87;2841505;82;21059;-75
2021/12/21 06:58:06;;;;;;;8.25;4.65;;;;;;;2.39;79.33;101129.55;2899070;82;21006;-74
2021/12/21 07:02:13;;;;;;;15.85;10.50;;;;;;;2.36;79.47;101134.47;2880880;82;21099;-72
2021/12/21 07:06:22;;;;;;;80.42;42.13;;;;;;;2.35;79.89;101132.72;2880744;82;21083;-74
2021/12/21 07:10:28;;;;;;;7.85;4.87;;;;;;;2.29;80.30;101139.50;2898694;81;20947;-74
2021/12/21 07:18:52;;;;;;;7.70;5.10;;;;;;;2.31;80.55;101143.41;2880827;82;21099;-73
2021/12/21 07:22:57;;;;;;;8.58;5.87;;;;;;;2.28;80.76;101143.91;2898821;82;21383;-74
2021/12/21 07:27:00;;;;;;;10.35;5.15;;;;;;;2.34;80.69;101136.73;2881231;82;21023;-74
2021/12/21 07:31:02;;;;;;;7.08;5.37;;;;;;;2.40;80.83;101138.70;2893110;82;21054;-73
2021/12/21 07:35:05;;;;;;;16.50;8.58;;;;;;;2.43;80.81;101137.27;2849629;83;21023;-70
2021/12/21 07:39:07;;;;;;;21.62;11.48;;;;;;;2.48;80.62;101138.87;2876207;82;20991;-74
2021/12/21 07:43:11;;;;;;;15.38;9.90;;;;;;;2.56;80.60;101136.86;2849355;83;21053;-74
2021/12/21 07:47:18;;;;;;;75.22;33.55;;;;;;;2.66;80.55;101136.09;2866256;80;21047;-74
2021/12/21 07:51:23;;;;;;;;;;;;;;;2.81;80.54;101138.63;2914649;81;20966;-73
2021/12/21 07:55:28;;;;;;;19.35;11.93;;;;;;;2.90;79.71;101140.06;2880838;82;20451;-74
2021/12/21 07:59:33;;;;;;;18.02;7.67;;;;;;;2.92;79.51;101138.23;2912360;81;21026;-74
2021/12/21 08:03:40;;;;;;;9.05;6.62;;;;;;;2.93;79.34;101138.63;2880782;82;21055;-73
2021/12/21 08:07:53;;;;;;;9.85;5.42;;;;;;;2.94;79.01;101137.72;2837776;82;21042;-74
2021/12/21 08:16:13;;;;;;;8.40;5.12;;;;;;;2.98;78.68;101141.50;2829653;84;21011;-75
2021/12/21 08:20:20;;;;;;;14.95;11.97;;;;;;;3.05;78.89;101149.16;2829607;84;21082;-74
2021/12/21 08:24:26;;;;;;;18.92;16.67;;;;;;;3.10;79.20;101148.52;2829141;84;21117;-74
2021/12/21 08:28:33;;;;;;;13.62;10.40;;;;;;;3.01;78.97;101152.34;2829564;83;21734;-74
2021/12/21 08:32:44;;;;;;;7.78;6.10;;;;;;;2.98;79.47;101155.95;2829459;84;21023;-74
2021/12/21 08:36:46;;;;;;;9.73;4.05;;;;;;;3.11;79.84;101156.80;2829457;84;21047;-70
2021/12/21 08:40:50;;;;;;;5.58;4.95;;;;;;;3.23;78.86;101166.02;2829678;84;20979;-73
2021/12/21 08:44:53;;;;;;;13.98;8.53;;;;;;;3.23;78.06;101162.94;2882078;81;21085;-71
2021/12/21 08:48:59;;;;;;;8.43;6.25;;;;;;;3.21;77.76;101166.09;2870596;80;21421;-73
2021/12/21 08:53:02;;;;;;;10.93;6.75;;;;;;;3.17;77.48;101172.82;2862276;83;21015;-74
2021/12/21 08:57:05;;;;;;;10.78;7.03;;;;;;;3.14;77.51;101167.20;2862467;83;21035;-69
2021/12/21 09:01:07;;;;;;;36.00;25.40;;;;;;;3.09;76.93;101166.52;2861996;83;21055;-73
2021/12/21 09:05:18;;;;;;;16.12;12.68;;;;;;;2.96;77.45;101184.52;2862129;82;21071;-74
2021/12/21 09:09:15;;;;;;;18.10;9.88;;;;;;;2.91;77.53;101182.04;2860774;82;21039;-72
2021/12/21 09:13:19;;;;;;;14.98;9.80;;;;;;;2.83;77.56;101178.36;2862233;82;21007;-74
2021/12/21 09:17:24;;;;;;;13.00;8.65;;;;;;;2.79;77.65;101176.77;2861899;82;21019;-72
2021/12/21 09:21:28;;;;;;;14.28;6.65;;;;;;;2.70;78.24;101183.20;2872199;81;21065;-74
2021/12/21 09:25:31;;;;;;;15.18;6.42;;;;;;;2.65;78.46;101175.06;2921409;81;21049;-73
2021/12/21 09:29:33;;;;;;;9.93;7.33;;;;;;;2.62;77.68;101177.80;2905662;81;21035;-71
2021/12/21 09:33:35;;;;;;;14.38;9.83;;;;;;;2.61;78.60;101174.33;2844471;82;21039;-74
2021/12/21 09:37:38;;;;;;;14.25;9.45;;;;;;;2.60;79.09;101172.62;2903108;81;20986;-74
2021/12/21 09:41:42;;;;;;;17.70;8.53;;;;;;;2.70;79.35;101176.63;2919116;81;21033;-73
2021/12/21 09:45:47;;;;;;;21.93;12.10;;;;;;;2.77;79.43;101172.50;2870779;83;21199;-73
2021/12/21 09:49:52;;;;;;;20.00;11.57;;;;;;;2.57;78.60;101171.41;2862661;83;21050;-73
2021/12/21 09:53:59;;;;;;;11.68;8.48;;;;;;;2.42;80.19;101176.70;2892373;81;21057;-74
2021/12/21 09:58:01;;;;;;;17.40;9.05;;;;;;;2.30;80.69;101180.60;2895742;81;21022;-74
2021/12/21 10:02:04;;;;;;;31.65;13.78;;;;;;;2.23;80.88;101179.09;2902760;81;21065;-73
2021/12/21 10:06:10;;;;;;;21.75;8.18;;;;;;;2.15;80.91;101175.41;2883659;81;21348;-74
2021/12/21 10:10:17;;;;;;;32.70;17.42;;;;;;;2.13;79.68;101168.87;2867315;81;21080;-73
2021/12/21 10:14:19;;;;;;;14.93;8.75;;;;;;;2.28;76.47;101168.86;2900521;81;21597;-74
2021/12/21 10:18:27;;;;;;;11.22;6.75;;;;;;;2.43;75.13;101170.55;2868722;81;21031;-73
2021/12/21 10:22:28;;;;;;;29.32;16.17;;;;;;;2.50;74.28;101166.81;2889863;81;21014;-71
2021/12/21 10:26:35;;;;;;;25.88;15.68;;;;;;;2.33;75.95;101172.62;2881552;81;21075;-73
2021/12/21 10:30:53;;;;;;;17.57;10.43;;;;;;;2.17;76.45;101166.18;2904289;81;20986;-72
2021/12/21 10:35:04;;;;;;;12.20;6.17;;;;;;;2.07;75.55;101159.06;2887176;81;20987;-71
2021/12/21 10:39:05;;;;;;;6.85;4.40;;;;;;;2.10;75.22;101158.48;2862259;83;21031;-75
2021/12/21 10:43:13;;;;;;;46.13;23.00;;;;;;;2.07;75.89;101157.27;2893053;81;21412;-72
2021/12/21 10:47:16;;;;;;;30.35;15.88;;;;;;;2.13;76.50;101150.50;2885517;81;21062;-72
2021/12/21 10:51:23;;;;;;;34.23;20.15;;;;;;;2.24;77.14;101151.94;2867843;81;21038;-74
2021/12/21 10:55:32;;;;;;;54.08;28.40;;;;;;;2.21;77.50;101145.48;2881520;82;20981;-73
2021/12/21 10:59:37;;;;;;;44.10;21.23;;;;;;;2.17;76.56;101145.18;2867533;82;21381;-73
2021/12/21 11:03:50;;;;;;;36.83;16.12;;;;;;;2.13;75.20;101145.25;2832458;83;21019;-73
2021/12/21 11:08:02;;;;;;;22.82;11.53;;;;;;;2.20;74.78;101145.08;2852807;82;21055;-71
2021/12/21 11:11:58;;;;;;;43.55;19.00;;;;;;;2.21;76.00;101148.94;2862049;81;21102;-73
2021/12/21 11:16:04;;;;;;;8.88;6.22;;;;;;;2.31;76.33;101150.81;2883877;82;20995;-74
2021/12/21 11:20:04;;;;;;;5.37;3.02;;;;;;;2.32;75.88;101143.80;2854709;82;21122;-74
2021/12/21 11:24:10;;;;;;;12.68;7.55;;;;;;;2.37;75.64;101137.49;2839449;82;21043;-74
2021/12/21 11:28:16;;;;;;;14.65;9.63;;;;;;;2.27;75.16;101142.20;2857939;82;21031;-78
2021/12/21 11:32:19;;;;;;;12.93;7.40;;;;;;;2.31;74.71;101135.05;2861676;82;21070;-76
2021/12/21 11:40:41;;;;;;;82.70;39.10;;;;;;;2.11;76.85;101133.95;2849542;82;21094;-76
2021/12/21 11:44:56;;;;;;;28.00;13.18;;;;;;;2.12;76.57;101133.04;2883835;80;21085;-77
2021/12/21 11:49:15;;;;;;;39.87;26.47;;;;;;;2.20;77.44;101125.39;2884904;80;21041;-74
2021/12/21 11:53:21;;;;;;;69.12;40.05;;;;;;;2.09;78.80;101122.64;2846674;83;20998;-71
2021/12/21 11:57:48;;;;;;;17.90;10.08;;;;;;;1.85;80.10;101119.92;2865725;81;21047;-74
2021/12/21 12:01:50;;;;;;;93.37;38.98;;;;;;;1.66;79.95;101112.23;2910103;80;21030;-74
2021/12/21 12:05:58;;;;;;;22.22;10.25;;;;;;;1.78;79.70;101114.47;2863045;82;21122;-75
2021/12/21 12:10:11;;;;;;;12.33;5.28;;;;;;;1.87;80.01;101117.70;2867617;82;21051;-73
2021/12/21 12:14:22;;;;;;;7.78;4.33;;;;;;;1.91;79.18;101119.31;2855023;82;21024;-74
2021/12/21 12:18:38;;;;;;;22.20;10.82;;;;;;;2.03;78.60;101121.98;2836579;82;21031;-73
2021/12/21 12:22:44;;;;;;;7.12;5.85;;;;;;;2.05;78.32;101121.04;2866091;80;21062;-74
2021/12/21 12:26:56;;;;;;;4.78;4.22;;;;;;;2.11;76.21;101127.39;2932215;81;20992;-73
2021/12/21 12:30:58;;;;;;;8.95;3.95;;;;;;;2.20;76.31;101119.66;2902786;81;21042;-74
2021/12/21 12:35:13;;;;;;;9.50;4.15;;;;;;;2.25;75.74;101119.05;2901862;81;21049;-75
2021/12/21 12:39:32;;;;;;;8.05;5.90;;;;;;;2.28;75.57;101108.91;2852634;82;21020;-73
2021/12/21 12:43:39;;;;;;;11.00;5.97;;;;;;;2.30;75.49;101109.70;2855065;82;21529;-73
2021/12/21 12:47:47;;;;;;;5.47;3.50;;;;;;;2.33;75.83;101112.22;2836051;82;21090;-73
2021/12/21 12:51:49;;;;;;;7.15;3.45;;;;;;;2.27;76.53;101108.51;2835456;84;21043;-72
2021/12/21 12:55:56;;;;;;;8.10;4.20;;;;;;;2.26;76.75;101104.16;2872715;82;21015;-73
2021/12/21 13:00:19;;;;;;;4.58;3.72;;;;;;;1.92;77.88;101104.84;2873597;82;21018;-72
2021/12/21 13:04:20;;;;;;;45.75;18.60;;;;;;;1.58;78.98;101115.55;2880018;82;21054;-73
2021/12/21 13:08:28;;;;;;;22.32;11.53;;;;;;;1.48;79.10;101115.82;2871380;82;21061;-72
2021/12/21 13:12:29;;;;;;;5.65;4.00;;;;;;;1.40;79.30;101115.21;2875979;82;21002;-72
2021/12/21 13:16:35;;;;;;;27.48;14.90;;;;;;;1.56;78.70;101122.98;2879882;82;21425;-73
2021/12/21 13:20:38;;;;;;;15.43;6.20;;;;;;;1.74;78.63;101125.95;2907982;81;21018;-72
2021/12/21 13:24:43;;;;;;;6.40;3.67;;;;;;;1.82;79.24;101123.95;2851352;82;21059;-73
2021/12/21 13:28:55;;;;;;;22.98;10.63;;;;;;;1.82;79.69;101116.52;2835954;83;21064;-74
2021/12/21 13:32:57;;;;;;;11.65;5.85;;;;;;;1.78;80.05;101122.78;2872056;82;21018;-71
2021/12/21 13:37:06;;;;;;;13.10;9.63;;;;;;;1.75;80.00;101129.44;2854737;82;21023;-74
2021/12/21 13:41:12;;;;;;;15.28;7.28;;;;;;;1.76;80.18;101126.75;2851062;82;21024;-73
2021/12/21 13:45:13;;;;;;;25.52;13.00;;;;;;;1.69;81.09;101121.30;2867641;82;21566;-73
2021/12/21 13:49:15;;;;;;;35.92;20.27;;;;;;;1.75;80.98;101133.38;2863611;82;20987;-72
2021/12/21 13:53:19;;;;;;;10.55;5.62;;;;;;;1.83;81.00;101129.61;2867666;82;21016;-74
2021/12/21 13:57:23;;;;;;;15.48;7.65;;;;;;;1.88;81.05;101125.97;2879421;80;21010;-70
2021/12/21 14:01:29;;;;;;;18.87;11.73;;;;;;;1.81;81.21;101131.42;2894503;81;21093;-70
2021/12/21 14:09:48;;;;;;;10.93;7.20;;;;;;;1.81;81.51;101131.86;2827969;82;21075;-69
2021/12/21 14:13:53;;;;;;;16.00;5.35;;;;;;;1.88;81.17;101125.97;2865451;82;21019;-71
2021/12/21 14:17:54;;;;;;;18.73;10.98;;;;;;;1.84;81.36;101122.14;2852687;82;21535;-71
2021/12/21 14:21:56;;;;;;;25.15;10.85;;;;;;;1.34;83.57;101108.38;2848081;82;21016;-71
2021/12/21 14:26:11;;;;;;;46.20;21.42;;;;;;;1.09;84.94;101110.42;2839773;82;21062;-74
2021/12/21 14:30:19;;;;;;;33.20;14.68;;;;;;;1.16;84.57;101108.45;2848020;82;20992;-74
2021/12/21 14:34:27;;;;;;;24.90;12.18;;;;;;;1.23;84.64;101106.08;2877076;82;21031;-75
2021/12/21 14:38:29;;;;;;;35.78;18.95;;;;;;;1.37;84.81;101111.34;2846479;81;21062;-71
2021/12/21 14:42:33;;;;;;;72.72;35.58;;;;;;;1.42;84.80;101118.64;2832309;82;21032;-70
2021/12/21 14:46:40;;;;;;;51.08;28.17;;;;;;;1.55;84.08;101122.59;2849251;83;28180;-69
2021/12/21 14:50:47;;;;;;;22.48;14.50;;;;;;;1.77;84.06;101122.38;2803139;85;21110;-70
2021/12/21 14:54:51;;;;;;;35.52;18.27;;;;;;;1.94;83.00;101127.95;2779101;85;21054;-70
2021/12/21 14:59:01;;;;;;;27.50;16.82;;;;;;;2.01;81.92;101125.99;2813879;84;21062;-68
2021/12/21 15:03:07;;;;;;;7.85;5.25;;;;;;;1.93;81.06;101117.48;2809804;83;21043;-70
2021/12/21 15:07:09;;;;;;;9.33;5.70;;;;;;;1.71;81.38;101120.80;2814768;83;21129;-69
2021/12/21 15:11:10;;;;;;;13.58;5.12;;;;;;;1.62;82.07;101122.41;2806928;83;21097;-70
2021/12/21 15:15:13;;;;;;;18.57;9.25;;;;;;;1.69;82.12;101129.17;2847364;83;21027;-71
2021/12/21 15:19:15;;;;;;;36.50;17.42;;;;;;;1.81;82.28;101130.55;2842666;83;21027;-70
2021/12/21 15:23:17;;;;;;;17.07;9.85;;;;;;;1.95;81.88;101129.66;2851604;83;21055;-71
2021/12/21 15:27:18;;;;;;;18.75;10.20;;;;;;;2.04;81.38;101119.33;2851189;83;21090;-70
2021/12/21 15:31:20;;;;;;;57.35;19.62;;;;;;;2.09;80.79;101121.34;2851486;83;21073;-70
2021/12/21 15:35:24;;;;;;;68.20;32.15;;;;;;;2.16;81.16;101124.63;2840705;82;21026;-70
2021/12/21 15:39:25;;;;;;;62.20;29.70;;;;;;;2.15;81.19;101121.59;2814861;83;21070;-70
2021/12/21 15:43:33;;;;;;;76.72;39.48;;;;;;;2.02;81.21;101121.14;2804985;83;21011;-70
2021/12/21 15:47:30;;;;;;;45.73;26.82;;;;;;;2.00;81.31;101122.49;2805007;83;22327;-70
2021/12/21 15:51:32;;;;;;;29.12;19.70;;;;;;;1.95;81.51;101120.92;2830148;83;21610;-69
2021/12/21 15:55:34;;;;;;;53.10;33.15;;;;;;;1.87;82.10;101117.26;2812935;84;21066;-72
2021/12/21 15:59:38;;;;;;;183.30;100.27;;;;;;;1.82;81.94;101113.46;2812851;84;21073;-70
2021/12/21 16:03:41;;;;;;;95.20;49.18;;;;;;;1.83;81.98;101119.11;2813536;84;21042;-72
2021/12/21 16:07:42;;;;;;;49.10;32.33;;;;;;;1.81;81.87;101118.31;2813151;84;21039;-73
2021/12/21 16:11:46;;;;;;;69.77;44.70;;;;;;;1.76;81.19;101116.26;2808796;84;21087;-73
2021/12/21 16:15:47;;;;;;;63.58;34.43;;;;;;;1.76;81.28;101116.26;2817249;83;21098;-73
2021/12/21 16:19:49;;;;;;;45.35;24.65;;;;;;;1.62;81.10;101113.23;2819357;83;21585;-74
2021/12/21 16:23:51;;;;;;;31.60;20.62;;;;;;;1.54;80.95;101123.49;2805002;84;21042;-73
2021/12/21 16:27:53;;;;;;;39.15;21.12;;;;;;;1.53;80.51;101124.87;2792900;84;21055;-73
2021/12/21 16:31:54;;;;;;;36.98;23.87;;;;;;;1.60;79.91;101132.94;2792108;84;21015;-74
2021/12/21 16:35:56;;;;;;;20.32;12.10;;;;;;;1.63;79.34;101139.87;2822426;83;21061;-73
2021/12/21 16:39:58;;;;;;;20.70;11.38;;;;;;;1.66;78.46;101141.08;2788035;85;21032;-73
2021/12/21 16:44:02;;;;;;;15.40;8.78;;;;;;;1.60;78.07;101145.22;2813390;84;21135;-71
2021/12/21 16:48:06;;;;;;;22.32;13.20;;;;;;;1.28;77.32;101142.19;2827622;83;21086;-73
2021/12/21 16:52:08;;;;;;;12.35;8.95;;;;;;;1.23;77.52;101152.39;2857368;83;21049;-74
2021/12/21 16:56:09;;;;;;;19.05;12.23;;;;;;;1.12;77.46;101147.45;2857349;83;21054;-73
2021/12/21 17:00:13;;;;;;;28.70;17.75;;;;;;;0.90;77.59;101148.53;2856822;83;21030;-73
2021/12/21 17:04:15;;;;;;;27.77;14.65;;;;;;;0.74;77.80;101148.94;2848581;83;21102;-74
2021/12/21 17:08:17;;;;;;;25.20;16.48;;;;;;;0.64;78.12;101152.69;2831371;83;21047;-75
2021/12/21 17:12:19;;;;;;;29.15;15.03;;;;;;;0.55;77.88;101150.73;2841866;82;21063;-74
2021/12/21 17:16:22;;;;;;;39.23;20.37;;;;;;;0.55;77.84;101149.87;2874787;82;21050;-74
2021/12/21 17:20:25;;;;;;;31.93;14.65;;;;;;;0.43;76.66;101136.64;2848287;83;21022;-74
2021/12/21 17:24:26;;;;;;;24.40;14.83;;;;;;;0.04;78.33;101135.01;2848222;83;21077;-74
2021/12/21 17:28:28;;;;;;;15.98;12.43;;;;;;;-0.17;79.62;101135.06;2895987;82;21022;-74
2021/12/21 17:32:29;;;;;;;27.32;14.45;;;;;;;-0.26;80.27;101125.67;2897580;82;21515;-73
2021/12/21 17:36:32;;;;;;;28.07;18.12;;;;;;;-0.23;80.68;101129.52;2897456;82;21605;-74
2021/12/21 17:40:34;;;;;;;41.13;15.98;;;;;;;-0.13;80.62;101135.39;2897190;82;21049;-74
2021/12/21 17:44:36;;;;;;;45.48;26.30;;;;;;;-0.04;79.84;101148.70;2897414;82;21034;-70
2021/12/21 17:48:38;;;;;;;42.93;21.23;;;;;;;-0.20;79.19;101156.90;2870787;82;21039;-73
2021/12/21 17:52:42;;;;;;;49.03;23.87;;;;;;;-0.21;80.03;101151.26;2830280;84;21061;-72
2021/12/21 17:56:44;;;;;;;32.98;22.13;;;;;;;-0.12;80.75;101158.03;2854467;82;21054;-73
2021/12/21 18:00:46;;;;;;;46.92;27.50;;;;;;;-0.08;80.03;101145.75;2830437;84;21043;-73
2021/12/21 18:04:47;;;;;;;38.58;22.75;;;;;;;0.03;80.48;101159.88;2847827;82;21008;-70
2021/12/21 18:08:50;;;;;;;41.50;24.05;;;;;;;0.10;80.75;101159.70;2830684;82;21057;-73
2021/12/21 18:12:53;;;;;;;37.63;22.95;;;;;;;0.05;80.50;101129.31;2830058;83;21039;-72
2021/12/21 18:16:54;;;;;;;57.08;34.65;;;;;;;0.33;79.95;101174.44;2847793;83;21042;-68
2021/12/21 18:20:57;;;;;;;54.15;28.90;;;;;;;0.17;79.38;101147.77;2847072;83;20998;-73
2021/12/21 18:24:58;;;;;;;66.35;36.03;;;;;;;0.26;78.86;101159.34;2887836;80;21590;-74
2021/12/21 18:29:00;;;;;;;68.80;33.78;;;;;;;0.36;78.51;101166.04;2852844;82;21040;-72
2021/12/21 18:33:03;;;;;;;55.17;29.98;;;;;;;0.38;76.39;101169.48;2848452;83;21037;-70
2021/12/21 18:37:06;;;;;;;65.03;31.62;;;;;;;0.38;76.39;101169.48;2853086;82;21077;-72
2021/12/21 18:41:09;;;;;;;48.02;28.70;;;;;;;0.17;76.27;101157.80;2846988;83;21077;-72
2021/12/21 18:45:12;;;;;;;52.60;29.67;;;;;;;0.15;76.02;101162.22;2886455;82;21042;-73
2021/12/21 18:49:17;;;;;;;46.28;29.30;;;;;;;0.05;75.45;101172.05;2899883;81;21563;-72
2021/12/21 18:53:19;;;;;;;48.95;26.07;;;;;;;-0.36;76.14;101176.00;2878528;82;21030;-71
2021/12/21 18:57:21;;;;;;;45.92;28.35;;;;;;;-0.53;78.02;101171.16;2876323;81;21038;-70
2021/12/21 19:01:32;;;;;;;49.98;27.75;;;;;;;-0.53;78.02;101171.16;2830616;82;21031;-71
2021/12/21 19:05:29;;;;;;;22.22;15.15;;;;;;;-0.66;78.49;101189.28;2889055;81;21081;-72
2021/12/21 19:09:31;;;;;;;28.12;17.52;;;;;;;-0.89;79.65;101195.83;2838116;82;21556;-69
2021/12/21 19:13:33;;;;;;;44.65;25.30;;;;;;;-1.04;81.07;101190.47;2894701;80;21046;-69
2021/12/21 19:17:34;;;;;;;50.58;31.23;;;;;;;-1.09;81.40;101211.87;2839027;82;21059;-70
2021/12/21 19:21:36;;;;;;;50.40;27.70;;;;;;;-1.02;80.35;101206.50;2862014;82;21022;-70
2021/12/21 19:25:41;;;;;;;51.13;30.95;;;;;;;-1.31;84.08;101218.35;2830126;82;21104;-69
2021/12/21 19:29:41;;;;;;;50.03;24.00;;;;;;;-1.20;85.67;101215.55;2830010;83;21068;-70
2021/12/21 19:33:42;;;;;;;37.10;21.62;;;;;;;-1.13;89.50;101212.39;2858624;82;21023;-70
2021/12/21 19:37:44;;;;;;;26.37;15.88;;;;;;;-1.13;89.50;101212.39;2885914;81;20970;-72
2021/12/21 19:41:46;;;;;;;25.80;16.42;;;;;;;-0.78;91.14;101221.31;2830541;84;21066;-70
2021/12/21 19:45:48;;;;;;;22.52;13.78;;;;;;;-0.47;91.00;101220.68;2861957;81;21069;-70
2021/12/21 19:49:50;;;;;;;28.52;14.23;;;;;;;-0.20;89.86;101220.97;2852198;82;21000;-70
2021/12/21 19:53:52;;;;;;;75.87;33.70;;;;;;;-0.16;89.73;101217.85;2893976;82;21029;-68
2021/12/21 19:57:57;;;;;;;154.25;62.62;;;;;;;-0.06;88.96;101221.13;2880222;82;21482;-72